Time;durP1;ratioP1;P1;durP2;ratioP2;P2;SDS_P1;SDS_P2;PMS_P1;PMS_P2;Temp;Humidity;BMP_temperature;BMP_pressure;BME280_temperature;BME280_humidity;BME280_pressure;Samples;Min_cycle;Max_cycle;Signal;HPM_P1;HPM_P2
2023/08/25 00:00:40;;;;;;;66.38;51.22;;;20.40;99.90;;;;;;4859974;29;20719;-69
2023/08/25 00:03:06;;;;;;;67.63;51.15;;;20.30;99.90;;;;;;4860541;29;20606;-69
2023/08/25 00:05:37;;;;;;;69.15;52.53;;;20.40;99.90;;;;;;4860836;29;20229;-68
2023/08/25 00:08:03;;;;;;;72.45;53.97;;;20.30;99.90;;;;;;4850733;29;20197;-70
2023/08/25 00:10:30;;;;;;;72.38;54.78;;;20.30;99.90;;;;;;4859458;29;20196;-71
2023/08/25 00:12:55;;;;;;;69.80;54.95;;;20.30;99.90;;;;;;4860315;29;20193;-69
2023/08/25 00:15:21;;;;;;;74.70;55.30;;;20.30;99.90;;;;;;4853925;29;20246;-70
2023/08/25 00:17:47;;;;;;;71.97;55.78;;;20.20;99.90;;;;;;4858113;29;20542;-69
2023/08/25 00:20:13;;;;;;;72.18;57.20;;;20.20;99.90;;;;;;4858053;29;20232;-70
2023/08/25 00:22:40;;;;;;;71.47;57.35;;;20.20;99.90;;;;;;4856884;29;20198;-69
2023/08/25 00:25:08;;;;;;;75.78;57.75;;;20.20;99.90;;;;;;4857027;29;20222;-66
2023/08/25 00:27:34;;;;;;;80.75;58.15;;;20.10;99.90;;;;;;4856306;29;20194;-69
2023/08/25 00:30:00;;;;;;;80.80;59.00;;;20.10;99.90;;;;;;4868692;29;20254;-69
2023/08/25 00:32:27;;;;;;;81.97;60.25;;;20.10;99.90;;;;;;4855124;29;20204;-67
2023/08/25 00:34:54;;;;;;;78.28;60.08;;;20.10;99.90;;;;;;4853985;29;20197;-71
2023/08/25 00:37:19;;;;;;;77.35;60.95;;;20.10;99.90;;;;;;4855949;29;20564;-67
2023/08/25 00:39:46;;;;;;;76.03;59.92;;;20.10;99.90;;;;;;4854518;29;20221;-68
2023/08/25 00:42:12;;;;;;;85.28;63.95;;;20.00;99.90;;;;;;4854226;29;20466;-71
2023/08/25 00:44:38;;;;;;;85.60;62.25;;;20.00;99.90;;;;;;4854965;29;20221;-70
2023/08/25 00:47:05;;;;;;;86.38;62.10;;;20.00;99.90;;;;;;4856923;29;20376;-66
2023/08/25 00:49:33;;;;;;;83.95;63.70;;;20.00;99.90;;;;;;4852543;29;20353;-68
2023/08/25 00:51:59;;;;;;;86.82;62.20;;;20.00;99.90;;;;;;4854606;29;20193;-67
2023/08/25 00:54:28;;;;;;;92.85;62.15;;;20.00;99.90;;;;;;4874103;29;20659;-68
2023/08/25 00:56:55;;;;;;;83.57;60.58;;;20.00;99.90;;;;;;4857620;29;20208;-67
2023/08/25 00:59:21;;;;;;;82.85;60.55;;;20.00;99.90;;;;;;4857246;29;20205;-67
2023/08/25 01:01:49;;;;;;;76.65;59.67;;;20.10;99.90;;;;;;4840644;29;20225;-71
2023/08/25 01:04:15;;;;;;;78.53;60.13;;;20.10;99.90;;;;;;4858404;29;20222;-69
2023/08/25 01:06:41;;;;;;;76.78;59.72;;;20.20;99.90;;;;;;4854764;29;20312;-68
2023/08/25 01:09:08;;;;;;;77.70;59.85;;;20.20;99.90;;;;;;4855115;29;20194;-68
2023/08/25 01:11:46;;;;;;;77.53;58.38;;;20.30;99.90;;;;;;4859363;29;20211;-68
2023/08/25 01:14:26;;;;;;;74.88;57.42;;;20.30;99.90;;;;;;4857660;29;20576;-68
2023/08/25 01:17:04;;;;;;;77.50;57.10;;;20.30;99.90;;;;;;4860098;29;20658;-68
2023/08/25 01:19:39;;;;;;;72.10;56.65;;;20.30;99.90;;;;;;4856865;29;20356;-68
2023/08/25 01:22:09;;;;;;;76.75;55.85;;;20.30;99.90;;;;;;4858526;29;20202;-70
2023/08/25 01:24:39;;;;;;;71.22;55.83;;;20.30;99.90;;;;;;4860009;29;20221;-68
2023/08/25 01:27:05;;;;;;;76.70;56.53;;;20.40;99.90;;;;;;4855294;29;20193;-70
2023/08/25 01:29:34;;;;;;;75.80;57.47;;;20.40;99.90;;;;;;4834564;29;20198;-71
2023/08/25 01:32:02;;;;;;;77.75;57.28;;;20.40;99.90;;;;;;4856679;29;20206;-70
2023/08/25 01:34:29;;;;;;;75.05;56.20;;;20.40;99.90;;;;;;4856678;29;20254;-71
2023/08/25 01:37:10;;;;;;;75.97;58.08;;;20.40;99.90;;;;;;4856952;29;20266;-68
2023/08/25 01:39:40;;;;;;;73.60;56.80;;;20.40;99.90;;;;;;4857215;29;20198;-69
2023/08/25 01:42:08;;;;;;;75.25;56.20;;;20.40;99.90;;;;;;4858541;29;20190;-69
2023/08/25 01:44:36;;;;;;;81.10;59.20;;;20.40;99.90;;;;;;4857100;29;20214;-69
2023/08/25 01:47:06;;;;;;;80.97;58.35;;;20.40;99.90;;;;;;4856362;29;20205;-67
2023/08/25 01:49:32;;;;;;;82.18;59.13;;;20.30;99.90;;;;;;4854823;29;20268;-69
2023/08/25 01:52:01;;;;;;;82.60;60.30;;;20.30;99.90;;;;;;4856179;29;20226;-68
2023/08/25 01:54:27;;;;;;;84.32;60.40;;;20.30;99.90;;;;;;4858493;29;20325;-70
2023/08/25 01:56:53;;;;;;;93.68;60.47;;;20.20;99.90;;;;;;4857488;29;20225;-69
2023/08/25 01:59:19;;;;;;;85.80;60.28;;;20.20;99.90;;;;;;4838978;29;20251;-69
2023/08/25 02:01:45;;;;;;;82.55;58.67;;;20.20;99.90;;;;;;4868616;29;20194;-69
2023/08/25 02:04:11;;;;;;;92.95;59.47;;;20.10;99.90;;;;;;4858042;29;20220;-71
2023/08/25 02:06:37;;;;;;;93.47;60.10;;;20.10;99.90;;;;;;4854106;29;20193;-68
2023/08/25 02:09:04;;;;;;;85.20;59.67;;;20.10;99.90;;;;;;4857200;29;20596;-69
2023/08/25 02:11:30;;;;;;;90.20;61.40;;;20.00;99.90;;;;;;4858093;29;20609;-68
2023/08/25 02:13:56;;;;;;;90.25;60.97;;;20.00;99.90;;;;;;4858381;29;20193;-69
2023/08/25 02:16:22;;;;;;;86.05;61.47;;;19.90;99.90;;;;;;4850880;29;20572;-68
2023/08/25 02:18:48;;;;;;;89.60;61.28;;;19.90;99.90;;;;;;4861923;29;20241;-70
2023/08/25 02:21:15;;;;;;;94.10;62.10;;;19.90;99.90;;;;;;4852379;29;20198;-68
2023/08/25 02:23:41;;;;;;;96.90;62.35;;;19.90;99.90;;;;;;4851956;29;20237;-68
2023/08/25 02:26:07;;;;;;;96.88;62.92;;;19.90;99.90;;;;;;4855912;29;20198;-70
2023/08/25 02:28:33;;;;;;;94.28;62.83;;;19.80;99.90;;;;;;4857660;29;20205;-68
2023/08/25 02:30:59;;;;;;;95.32;62.28;;;19.80;99.90;;;;;;4851562;29;20201;-69
2023/08/25 02:33:25;;;;;;;98.18;63.28;;;19.70;99.90;;;;;;4855998;29;20194;-70
2023/08/25 02:35:51;;;;;;;95.70;62.75;;;19.70;99.90;;;;;;4856497;29;20186;-70
2023/08/25 02:38:17;;;;;;;101.43;64.38;;;19.70;99.90;;;;;;4857779;29;20190;-68
2023/08/25 02:40:43;;;;;;;100.10;62.63;;;19.70;99.90;;;;;;4854767;29;20193;-67
2023/08/25 02:43:09;;;;;;;100.80;65.32;;;19.70;99.90;;;;;;4858292;29;20698;-68
2023/08/25 02:45:36;;;;;;;101.68;63.72;;;19.70;99.90;;;;;;4856841;29;20214;-68
2023/08/25 02:48:03;;;;;;;101.72;64.43;;;19.70;99.90;;;;;;4858672;29;20201;-68
2023/08/25 02:50:30;;;;;;;98.10;62.45;;;19.70;99.90;;;;;;4859987;29;20201;-69
2023/08/25 02:52:56;;;;;;;97.32;61.85;;;19.80;99.90;;;;;;4861180;29;20205;-69
2023/08/25 02:55:23;;;;;;;100.20;62.65;;;19.80;99.90;;;;;;4840777;29;20990;-67
2023/08/25 02:57:50;;;;;;;97.57;62.70;;;19.80;99.90;;;;;;4859904;29;20222;-66
2023/08/25 03:00:28;;;;;;;100.30;62.40;;;19.90;99.90;;;;;;4838800;29;20182;-69
2023/08/25 03:02:54;;;;;;;97.45;64.70;;;19.90;99.90;;;;;;4859095;29;20636;-68
2023/08/25 03:05:21;;;;;;;90.78;63.85;;;19.90;99.90;;;;;;4857087;29;20253;-67
2023/08/25 03:07:53;;;;;;;89.47;61.78;;;19.90;99.90;;;;;;4874145;29;20201;-69
2023/08/25 03:10:19;;;;;;;98.53;63.03;;;20.00;99.90;;;;;;4857158;29;20282;-70
2023/08/25 03:12:45;;;;;;;97.50;62.20;;;19.90;99.90;;;;;;4861122;29;20190;-68
2023/08/25 03:15:11;;;;;;;97.40;61.97;;;20.00;99.90;;;;;;4856885;29;20555;-69
2023/08/25 03:17:37;;;;;;;90.70;61.38;;;20.00;99.90;;;;;;4866437;29;20280;-69
2023/08/25 03:20:04;;;;;;;89.70;62.00;;;20.00;99.90;;;;;;4860841;29;20316;-71
2023/08/25 03:22:31;;;;;;;96.05;63.88;;;20.10;99.90;;;;;;4876138;29;20313;-67
2023/08/25 03:24:57;;;;;;;92.72;62.20;;;20.00;99.90;;;;;;4856126;29;20230;-74
2023/08/25 03:27:24;;;;;;;93.22;61.80;;;20.00;99.90;;;;;;4831640;29;20676;-67
2023/08/25 03:29:49;;;;;;;93.65;62.83;;;20.00;99.90;;;;;;4854620;29;20277;-69
2023/08/25 03:32:15;;;;;;;95.93;61.75;;;20.00;99.90;;;;;;4861414;29;20277;-71
2023/08/25 03:34:42;;;;;;;93.57;62.95;;;20.10;99.90;;;;;;4858304;29;20228;-69
2023/08/25 03:37:07;;;;;;;93.05;63.88;;;20.00;99.90;;;;;;4856546;29;20202;-68
2023/08/25 03:39:34;;;;;;;97.00;62.25;;;20.10;99.90;;;;;;4859039;29;20197;-69
2023/08/25 03:41:59;;;;;;;93.10;63.08;;;20.00;99.90;;;;;;4861431;29;20249;-68
2023/08/25 03:44:25;;;;;;;95.13;63.42;;;20.10;99.90;;;;;;4856163;29;20297;-68
2023/08/25 03:46:51;;;;;;;86.25;61.03;;;20.10;99.90;;;;;;4856100;29;20198;-68
2023/08/25 03:49:17;;;;;;;94.68;62.83;;;20.00;99.90;;;;;;4856754;29;20194;-70
2023/08/25 03:51:43;;;;;;;98.88;63.10;;;20.00;99.90;;;;;;4875579;29;20272;-69
2023/08/25 03:54:11;;;;;;;94.10;62.35;;;20.10;99.90;;;;;;4861226;29;20198;-69
2023/08/25 03:56:38;;;;;;;94.72;61.13;;;20.10;99.90;;;;;;4844204;29;20284;-69
2023/08/25 03:59:04;;;;;;;99.72;61.53;;;20.10;99.90;;;;;;4842572;29;20229;-68
2023/08/25 04:01:30;;;;;;;103.53;63.30;;;20.10;99.90;;;;;;4858312;29;20234;-69
2023/08/25 04:03:56;;;;;;;93.15;62.60;;;20.00;99.90;;;;;;4859496;29;20217;-70
2023/08/25 04:06:22;;;;;;;98.70;64.15;;;20.00;99.90;;;;;;4851691;29;20224;-71
2023/08/25 04:08:48;;;;;;;92.25;61.83;;;20.00;99.90;;;;;;4859180;29;20221;-71
2023/08/25 04:11:16;;;;;;;98.18;64.05;;;20.00;99.90;;;;;;4856460;29;20205;-70
2023/08/25 04:13:43;;;;;;;97.43;64.68;;;19.90;99.90;;;;;;4865289;29;20209;-67
2023/08/25 04:16:09;;;;;;;101.25;65.60;;;19.90;99.90;;;;;;4859438;29;20198;-68
2023/08/25 04:18:35;;;;;;;103.47;66.63;;;19.90;99.90;;;;;;4856999;29;20198;-70
2023/08/25 04:21:01;;;;;;;104.65;66.03;;;19.80;99.90;;;;;;4855964;29;20222;-69
2023/08/25 04:23:28;;;;;;;109.75;66.75;;;19.80;99.90;;;;;;4850809;29;20230;-73
2023/08/25 04:25:54;;;;;;;109.20;66.32;;;19.90;99.90;;;;;;4852713;29;20311;-69
2023/08/25 04:28:20;;;;;;;104.13;64.05;;;19.90;99.90;;;;;;4858408;29;20277;-68
2023/08/25 04:30:46;;;;;;;117.32;66.72;;;19.90;99.90;;;;;;4858522;29;20221;-69
2023/08/25 04:33:23;;;;;;;109.50;67.55;;;19.80;99.90;;;;;;4859503;29;20194;-68
2023/08/25 04:35:49;;;;;;;106.32;65.82;;;19.80;99.90;;;;;;4839534;29;20219;-67
2023/08/25 04:38:15;;;;;;;110.68;66.45;;;19.80;99.90;;;;;;4858726;29;20200;-70
2023/08/25 04:40:42;;;;;;;119.43;67.97;;;19.80;99.90;;;;;;4838934;29;20214;-73
2023/08/25 04:43:08;;;;;;;108.97;67.20;;;19.80;99.90;;;;;;4857920;29;20273;-68
2023/08/25 04:45:34;;;;;;;111.55;66.30;;;19.80;99.90;;;;;;4852549;29;20218;-67
2023/08/25 04:48:02;;;;;;;110.38;65.82;;;19.80;99.90;;;;;;4866003;29;20286;-68
2023/08/25 04:50:28;;;;;;;110.72;65.43;;;19.80;99.90;;;;;;4857209;29;20190;-68
2023/08/25 04:52:54;;;;;;;108.03;66.95;;;19.90;99.90;;;;;;4881298;29;20201;-67
2023/08/25 04:55:20;;;;;;;109.65;63.50;;;19.90;99.90;;;;;;4856446;29;20201;-68
2023/08/25 04:57:46;;;;;;;115.97;65.07;;;19.90;99.90;;;;;;4858823;29;20692;-68
2023/08/25 05:00:12;;;;;;;112.40;64.95;;;19.90;99.90;;;;;;4858727;29;20214;-69
2023/08/25 05:02:38;;;;;;;111.90;63.58;;;19.90;99.90;;;;;;4869984;29;20362;-69
2023/08/25 05:05:07;;;;;;;111.88;65.85;;;19.90;99.90;;;;;;4838105;29;20220;-70
2023/08/25 05:07:34;;;;;;;101.03;63.10;;;20.00;99.90;;;;;;4871093;29;20198;-68
2023/08/25 05:10:00;;;;;;;102.78;61.53;;;20.00;99.90;;;;;;4859675;29;20651;-70
2023/08/25 05:12:28;;;;;;;111.68;63.60;;;20.00;99.90;;;;;;4853348;29;20273;-69
2023/08/25 05:14:55;;;;;;;105.93;63.83;;;20.00;99.90;;;;;;4827917;29;20222;-72
2023/08/25 05:17:21;;;;;;;103.65;62.72;;;20.00;99.90;;;;;;4869211;29;20621;-69
2023/08/25 05:19:50;;;;;;;114.07;62.53;;;20.00;99.90;;;;;;4869491;29;20237;-67
2023/08/25 05:22:17;;;;;;;100.85;61.30;;;20.00;99.90;;;;;;4858658;29;20198;-68
2023/08/25 05:24:43;;;;;;;106.57;62.03;;;20.00;99.90;;;;;;4874676;29;20232;-69
2023/08/25 05:27:09;;;;;;;100.65;61.63;;;20.10;99.90;;;;;;4861344;29;20656;-67
2023/08/25 05:29:35;;;;;;;106.78;62.13;;;20.10;99.90;;;;;;4857132;29;20660;-66
2023/08/25 05:32:11;;;;;;;103.80;60.90;;;20.10;99.90;;;;;;4853743;29;20193;-68
2023/08/25 05:35:00;;;;;;;100.53;60.13;;;20.10;99.90;;;;;;4861104;29;20638;-67
2023/08/25 05:37:27;;;;;;;100.75;59.03;;;20.20;99.90;;;;;;4844596;29;20210;-69
2023/08/25 05:39:53;;;;;;;103.13;60.92;;;20.20;99.90;;;;;;4842785;29;20289;-68
2023/08/25 05:42:19;;;;;;;103.65;58.63;;;20.20;99.90;;;;;;4843017;29;20186;-69
2023/08/25 05:44:45;;;;;;;101.05;59.67;;;20.20;99.90;;;;;;4859097;29;20217;-69
2023/08/25 05:47:11;;;;;;;101.75;60.58;;;20.30;99.90;;;;;;4859534;29;20210;-67
2023/08/25 05:49:37;;;;;;;94.47;58.13;;;20.40;99.90;;;;;;4859013;29;20190;-68
2023/08/25 05:52:03;;;;;;;103.20;58.95;;;20.30;99.90;;;;;;4855542;29;20250;-62
2023/08/25 05:54:29;;;;;;;94.68;58.97;;;20.40;99.90;;;;;;4872029;29;20198;-67
2023/08/25 05:56:55;;;;;;;104.55;60.97;;;20.40;99.90;;;;;;4853968;29;20192;-67
2023/08/25 05:59:21;;;;;;;104.72;60.40;;;20.40;99.90;;;;;;4836103;29;20226;-67
2023/08/25 06:01:47;;;;;;;95.15;57.45;;;20.50;99.90;;;;;;4859404;29;20870;-68
2023/08/25 06:04:13;;;;;;;101.45;59.40;;;20.50;99.90;;;;;;4858889;29;20213;-68
2023/08/25 06:06:39;;;;;;;106.22;59.65;;;20.50;99.90;;;;;;4859394;29;20197;-69
2023/08/25 06:09:05;;;;;;;96.22;58.63;;;20.50;99.90;;;;;;4855083;29;20205;-70
2023/08/25 06:11:31;;;;;;;106.55;59.22;;;20.50;99.90;;;;;;4862909;29;20567;-68
2023/08/25 06:13:57;;;;;;;94.95;58.83;;;20.60;99.90;;;;;;4857146;29;20226;-68
2023/08/25 06:16:23;;;;;;;110.05;59.47;;;20.60;99.90;;;;;;4858613;29;20194;-68
2023/08/25 06:18:49;;;;;;;100.82;58.90;;;20.60;99.90;;;;;;4841008;29;20236;-68
2023/08/25 06:21:15;;;;;;;97.40;59.33;;;20.60;99.90;;;;;;4855936;29;20212;-67
2023/08/25 06:23:41;;;;;;;106.97;59.97;;;20.60;99.90;;;;;;4860885;29;20197;-67
2023/08/25 06:26:07;;;;;;;106.38;59.95;;;20.60;99.90;;;;;;4861313;29;20194;-69
2023/08/25 06:28:33;;;;;;;109.65;61.45;;;20.60;99.90;;;;;;4856820;29;20576;-67
2023/08/25 06:30:59;;;;;;;99.45;60.17;;;20.60;99.90;;;;;;4856869;29;20231;-70
2023/08/25 06:33:29;;;;;;;111.15;61.65;;;20.60;99.90;;;;;;4860723;29;20568;-68
2023/08/25 06:35:56;;;;;;;113.28;62.22;;;20.60;99.90;;;;;;4866749;29;20228;-69
2023/08/25 06:38:23;;;;;;;111.35;62.13;;;20.60;99.90;;;;;;4861213;29;20405;-68
2023/08/25 06:40:51;;;;;;;106.70;59.95;;;20.70;99.90;;;;;;4859920;29;20551;-70
2023/08/25 06:43:17;;;;;;;111.53;60.65;;;20.70;99.90;;;;;;4850613;29;20284;-67
2023/08/25 06:45:43;;;;;;;109.18;62.05;;;20.70;99.90;;;;;;4856911;29;20822;-70
2023/08/25 06:48:08;;;;;;;120.95;65.78;;;20.80;99.90;;;;;;4859305;29;20284;-69
2023/08/25 06:50:34;;;;;;;102.90;59.63;;;20.80;99.90;;;;;;4860393;29;20277;-67
2023/08/25 06:53:00;;;;;;;120.93;62.13;;;20.80;99.90;;;;;;4861114;29;20201;-67
2023/08/25 06:55:27;;;;;;;117.32;61.72;;;20.80;99.90;;;;;;4858735;29;20202;-68
2023/08/25 06:57:52;;;;;;;108.97;60.40;;;20.80;99.90;;;;;;4856297;29;20194;-70
2023/08/25 07:00:19;;;;;;;102.93;58.38;;;20.80;99.90;;;;;;4857031;29;20190;-68
2023/08/25 07:02:45;;;;;;;88.88;53.17;;;20.80;99.90;;;;;;4857166;29;20249;-70
2023/08/25 07:05:13;;;;;;;86.13;54.60;;;20.80;99.90;;;;;;4858638;29;20225;-68
2023/08/25 07:07:39;;;;;;;90.10;52.90;;;20.80;99.90;;;;;;4861659;29;20194;-68
2023/08/25 07:10:06;;;;;;;83.45;52.08;;;20.80;99.90;;;;;;4856865;29;20273;-69
2023/08/25 07:12:32;;;;;;;94.57;53.15;;;20.80;99.90;;;;;;4856161;29;20273;-70
2023/08/25 07:14:58;;;;;;;87.63;52.55;;;20.80;99.90;;;;;;4857876;29;20194;-70
2023/08/25 07:17:24;;;;;;;89.97;53.80;;;20.80;99.90;;;;;;4858662;29;20191;-69
2023/08/25 07:19:50;;;;;;;81.90;52.92;;;20.90;99.90;;;;;;4859431;29;20229;-69
2023/08/25 07:22:17;;;;;;;81.20;50.20;;;21.00;99.90;;;;;;4860117;29;20298;-69
2023/08/25 07:24:42;;;;;;;78.80;50.28;;;21.10;99.90;;;;;;4860527;29;20338;-69
2023/08/25 07:27:10;;;;;;;79.70;50.70;;;21.20;99.90;;;;;;4855090;29;20305;-67
2023/08/25 07:29:36;;;;;;;85.78;50.38;;;21.20;99.90;;;;;;4861323;29;20202;-69
2023/08/25 07:32:03;;;;;;;80.07;48.60;;;21.30;99.90;;;;;;4859731;29;20219;-71
2023/08/25 07:34:29;;;;;;;79.38;47.95;;;21.40;99.90;;;;;;4857509;29;20295;-70
2023/08/25 07:36:56;;;;;;;75.68;46.97;;;21.50;99.90;;;;;;4857522;29;20198;-69
2023/08/25 07:39:22;;;;;;;77.13;46.28;;;21.60;99.90;;;;;;4858412;29;20301;-70
2023/08/25 07:41:48;;;;;;;72.18;44.03;;;21.70;99.90;;;;;;4861305;29;20726;-69
2023/08/25 07:44:14;;;;;;;73.60;44.42;;;21.80;99.90;;;;;;4854415;29;20627;-69
2023/08/25 07:46:40;;;;;;;73.35;44.03;;;21.80;99.90;;;;;;4860110;29;20226;-69
2023/08/25 07:49:07;;;;;;;66.35;43.10;;;21.90;99.90;;;;;;4857551;29;20204;-69
2023/08/25 07:51:35;;;;;;;77.97;43.92;;;21.90;99.90;;;;;;4859043;29;20201;-69
2023/08/25 07:54:01;;;;;;;67.93;45.00;;;22.00;99.90;;;;;;4844613;29;20197;-69
2023/08/25 07:56:28;;;;;;;73.05;44.83;;;22.00;99.90;;;;;;4861971;29;20239;-71
2023/08/25 07:58:54;;;;;;;73.65;45.70;;;22.00;99.90;;;;;;4861457;29;20269;-75
2023/08/25 08:01:20;;;;;;;71.80;47.95;;;22.00;99.90;;;;;;4857538;29;20201;-69
2023/08/25 08:03:47;;;;;;;72.90;45.15;;;21.90;99.90;;;;;;4860704;29;20194;-70
2023/08/25 08:06:12;;;;;;;71.60;44.88;;;21.80;99.90;;;;;;4855457;29;20210;-74
2023/08/25 08:08:39;;;;;;;67.80;44.88;;;21.80;99.90;;;;;;4872871;29;20536;-71
2023/08/25 08:11:05;;;;;;;74.47;45.03;;;21.80;99.90;;;;;;4861601;29;20197;-72
2023/08/25 08:13:31;;;;;;;71.18;43.10;;;21.80;99.90;;;;;;4860721;29;20584;-72
2023/08/25 08:15:58;;;;;;;63.65;41.70;;;21.80;99.90;;;;;;4856494;29;20399;-71
2023/08/25 08:18:24;;;;;;;58.63;39.42;;;21.90;99.90;;;;;;4861616;29;20194;-71
2023/08/25 08:20:50;;;;;;;57.25;39.95;;;21.90;99.90;;;;;;4860306;29;20316;-71
2023/08/25 08:23:15;;;;;;;67.80;39.22;;;22.00;99.90;;;;;;4861137;29;20655;-72
2023/08/25 08:25:41;;;;;;;56.92;37.85;;;22.00;99.90;;;;;;4870881;29;20221;-71
2023/08/25 08:28:08;;;;;;;56.65;37.75;;;22.00;99.90;;;;;;4861056;29;20194;-71
2023/08/25 08:30:35;;;;;;;57.22;36.28;;;22.10;99.90;;;;;;4855947;29;20190;-72
2023/08/25 08:33:01;;;;;;;53.40;34.60;;;22.10;99.90;;;;;;4857692;29;20281;-69
2023/08/25 08:35:27;;;;;;;49.67;34.22;;;22.10;99.90;;;;;;4858603;29;20194;-70
2023/08/25 08:37:53;;;;;;;49.88;31.35;;;22.10;99.90;;;;;;4856923;29;20201;-71
2023/08/25 08:40:20;;;;;;;44.53;27.80;;;22.10;99.90;;;;;;4860233;29;20201;-69
2023/08/25 08:42:47;;;;;;;39.88;28.17;;;22.20;99.90;;;;;;4858847;29;20599;-69
2023/08/25 08:45:17;;;;;;;43.15;26.15;;;22.20;99.90;;;;;;4856498;29;20261;-73
2023/08/25 08:47:44;;;;;;;37.03;25.08;;;22.30;99.90;;;;;;4859554;29;20273;-73
2023/08/25 08:50:10;;;;;;;50.80;29.70;;;22.30;99.90;;;;;;4842693;29;20581;-72
2023/08/25 08:52:36;;;;;;;45.90;26.27;;;22.40;99.90;;;;;;4869442;29;20322;-72
2023/08/25 08:55:07;;;;;;;38.20;23.77;;;22.40;99.90;;;;;;4858278;29;20289;-69
2023/08/25 08:57:33;;;;;;;39.83;24.77;;;22.40;99.90;;;;;;4860307;29;20200;-71
2023/08/25 09:00:00;;;;;;;39.63;25.13;;;22.50;99.90;;;;;;4850738;29;20249;-71
2023/08/25 09:02:30;;;;;;;36.10;25.10;;;22.50;99.90;;;;;;4845873;29;20198;-75
2023/08/25 09:05:00;;;;;;;37.65;24.77;;;22.60;99.90;;;;;;4859691;29;20662;-74
2023/08/25 09:07:31;;;;;;;40.33;24.55;;;22.70;99.90;;;;;;4856936;29;20190;-71
2023/08/25 09:09:58;;;;;;;38.95;25.35;;;22.70;99.90;;;;;;4852957;29;20194;-71
2023/08/25 09:12:25;;;;;;;42.78;25.30;;;22.80;99.90;;;;;;4859127;29;20197;-74
2023/08/25 09:14:51;;;;;;;40.80;27.00;;;22.90;99.90;;;;;;4859350;29;20197;-72
2023/08/25 09:17:17;;;;;;;44.55;26.67;;;23.00;99.90;;;;;;4853147;29;20190;-70
2023/08/25 09:19:43;;;;;;;37.10;24.75;;;23.00;99.90;;;;;;4858664;29;20244;-70
2023/08/25 09:22:16;;;;;;;40.75;26.23;;;23.10;99.90;;;;;;4853914;29;20201;-71
2023/08/25 09:24:43;;;;;;;40.05;25.38;;;23.20;99.90;;;;;;4858646;29;20218;-70
2023/08/25 09:27:24;;;;;;;40.90;24.95;;;23.30;99.90;;;;;;4854147;29;20582;-71
2023/08/25 09:29:59;;;;;;;41.95;24.83;;;23.30;99.90;;;;;;4853759;29;20197;-73
2023/08/25 09:32:27;;;;;;;36.53;24.30;;;23.40;99.90;;;;;;4852927;29;20190;-71
2023/08/25 09:34:54;;;;;;;54.20;31.30;;;23.40;99.90;;;;;;4854414;29;20202;-71
2023/08/25 09:37:22;;;;;;;39.25;26.08;;;23.50;99.90;;;;;;4858773;29;20235;-71
2023/08/25 09:39:48;;;;;;;40.38;25.88;;;23.50;99.90;;;;;;4855421;29;21948;-71
2023/08/25 09:42:13;;;;;;;41.38;24.70;;;23.40;99.90;;;;;;4855613;29;20258;-71
2023/08/25 09:44:39;;;;;;;44.30;27.38;;;23.50;99.90;;;;;;4857892;29;20229;-72
2023/08/25 09:47:08;;;;;;;40.00;26.42;;;23.60;99.90;;;;;;4858707;29;20198;-71
2023/08/25 09:49:39;;;;;;;44.58;26.98;;;23.60;99.90;;;;;;4856125;29;20201;-71
2023/08/25 09:52:06;;;;;;;42.25;27.33;;;23.80;99.90;;;;;;4853699;29;20253;-71
2023/08/25 09:54:34;;;;;;;37.28;26.55;;;23.80;99.90;;;;;;4855448;29;20588;-71
2023/08/25 09:57:00;;;;;;;42.90;27.40;;;23.90;99.90;;;;;;4854143;29;20193;-71
2023/08/25 09:59:27;;;;;;;39.42;26.65;;;24.00;99.90;;;;;;4858727;29;20201;-70
2023/08/25 10:01:53;;;;;;;46.85;26.63;;;24.10;99.90;;;;;;4859131;29;20597;-71
2023/08/25 10:04:21;;;;;;;43.83;26.83;;;24.10;99.90;;;;;;4852181;29;20213;-70
2023/08/25 10:06:47;;;;;;;45.10;26.92;;;24.20;99.90;;;;;;4855392;29;20584;-70
2023/08/25 10:09:14;;;;;;;46.78;28.13;;;24.20;99.90;;;;;;4855885;29;20204;-70
2023/08/25 10:11:43;;;;;;;41.95;27.60;;;24.20;99.90;;;;;;4857642;29;20221;-72
2023/08/25 10:14:12;;;;;;;41.90;27.60;;;24.20;99.90;;;;;;4854300;29;20178;-71
2023/08/25 10:16:39;;;;;;;42.42;28.50;;;24.10;99.90;;;;;;4852582;29;20190;-70
2023/08/25 10:19:11;;;;;;;59.42;38.55;;;24.10;99.90;;;;;;4854856;29;20234;-71
2023/08/25 10:21:38;;;;;;;45.40;29.27;;;24.00;99.90;;;;;;4860115;29;20197;-71
2023/08/25 10:24:05;;;;;;;42.97;28.00;;;23.90;99.90;;;;;;4857828;29;20226;-71
2023/08/25 10:26:32;;;;;;;44.03;29.02;;;23.80;99.90;;;;;;4856985;29;21244;-71
2023/08/25 10:28:58;;;;;;;39.38;29.48;;;23.80;99.90;;;;;;4852821;29;20194;-71
2023/08/25 10:31:25;;;;;;;47.35;29.35;;;23.80;99.90;;;;;;4858713;29;20516;-70
2023/08/25 10:33:53;;;;;;;39.03;28.25;;;23.70;99.90;;;;;;4858309;29;20202;-69
2023/08/25 10:36:23;;;;;;;51.70;29.92;;;23.60;99.90;;;;;;4858512;29;20265;-71
2023/08/25 10:38:55;;;;;;;48.28;30.35;;;23.60;99.90;;;;;;4857525;29;20194;-70
2023/08/25 10:41:23;;;;;;;50.30;32.08;;;23.50;99.90;;;;;;4851442;29;20221;-70
2023/08/25 10:43:54;;;;;;;46.60;30.88;;;23.50;99.90;;;;;;4858509;29;20205;-70
2023/08/25 10:46:23;;;;;;;47.80;31.00;;;23.40;99.90;;;;;;4856764;29;20198;-70
2023/08/25 10:49:12;;;;;;;50.50;32.78;;;23.30;99.90;;;;;;4857435;29;20190;-71
2023/08/25 10:51:38;;;;;;;50.03;31.17;;;23.20;99.90;;;;;;4854413;29;20194;-70
2023/08/25 10:54:04;;;;;;;47.47;31.33;;;23.20;99.90;;;;;;4867362;29;20261;-71
2023/08/25 10:56:30;;;;;;;46.90;32.70;;;23.20;99.90;;;;;;4858359;29;20190;-71
2023/08/25 10:59:04;;;;;;;47.47;33.22;;;23.10;99.90;;;;;;4851765;29;20206;-70
2023/08/25 11:01:36;;;;;;;48.63;33.50;;;23.10;99.90;;;;;;4854103;29;20296;-70
2023/08/25 11:04:10;;;;;;;55.50;34.60;;;23.00;99.90;;;;;;4854970;29;20325;-76
2023/08/25 11:06:45;;;;;;;55.17;35.17;;;23.00;99.90;;;;;;4853841;29;20284;-71
2023/08/25 11:09:20;;;;;;;46.80;33.22;;;23.00;99.90;;;;;;4859732;29;20197;-72
2023/08/25 11:11:56;;;;;;;54.13;38.45;;;23.00;99.90;;;;;;4845268;29;20206;-67
2023/08/25 11:14:28;;;;;;;52.22;34.83;;;22.90;99.90;;;;;;4859977;29;20202;-72
2023/08/25 11:16:54;;;;;;;53.17;34.75;;;22.90;99.90;;;;;;4855401;29;20686;-69
2023/08/25 11:19:20;;;;;;;45.35;32.47;;;22.90;99.90;;;;;;4855342;29;20265;-71
2023/08/25 11:22:15;;;;;;;46.58;33.58;;;22.90;99.90;;;;;;4876389;29;20198;-69
2023/08/25 11:24:43;;;;;;;54.08;34.78;;;22.80;99.90;;;;;;4842947;29;20278;-72
2023/08/25 11:27:11;;;;;;;50.72;33.80;;;22.80;99.90;;;;;;4859517;29;20280;-71
2023/08/25 11:29:44;;;;;;;51.78;34.53;;;22.80;99.90;;;;;;4855495;29;20912;-71
2023/08/25 11:32:14;;;;;;;50.22;35.15;;;22.80;99.90;;;;;;4860871;29;20281;-72
2023/08/25 11:34:40;;;;;;;55.65;37.78;;;22.70;99.90;;;;;;4861231;29;20228;-73
2023/08/25 11:37:06;;;;;;;61.78;39.28;;;22.60;99.90;;;;;;4861495;29;20623;-72
2023/08/25 11:39:32;;;;;;;54.58;38.85;;;22.40;99.90;;;;;;4857958;29;20194;-71
2023/08/25 11:41:58;;;;;;;59.53;39.65;;;22.20;99.90;;;;;;4861184;29;20715;-74
2023/08/25 11:44:25;;;;;;;67.13;40.28;;;22.00;99.90;;;;;;4862009;29;20614;-70
2023/08/25 11:46:54;;;;;;;52.58;39.10;;;21.90;99.90;;;;;;4859753;29;20572;-73
2023/08/25 11:49:20;;;;;;;57.05;39.97;;;21.90;99.90;;;;;;4855813;29;20210;-72
2023/08/25 11:51:48;;;;;;;61.78;41.03;;;21.90;99.90;;;;;;4860813;29;20197;-71
2023/08/25 11:54:14;;;;;;;58.13;39.90;;;22.00;99.90;;;;;;4856630;29;20217;-69
2023/08/25 11:56:49;;;;;;;51.92;37.13;;;22.20;99.90;;;;;;4861175;29;20627;-71
2023/08/25 11:59:19;;;;;;;50.38;35.60;;;22.40;99.90;;;;;;4860525;29;20197;-70
2023/08/25 12:01:51;;;;;;;52.78;36.13;;;22.50;99.90;;;;;;4861257;29;20734;-70
2023/08/25 12:04:25;;;;;;;51.83;35.83;;;22.60;99.90;;;;;;4859221;29;20258;-70
2023/08/25 12:06:55;;;;;;;48.53;34.58;;;22.80;99.90;;;;;;4855475;29;20197;-70
2023/08/25 12:09:23;;;;;;;52.63;35.85;;;22.90;99.90;;;;;;4869849;29;20182;-72
2023/08/25 12:11:50;;;;;;;49.15;33.28;;;23.00;99.90;;;;;;4860084;29;20273;-74
2023/08/25 12:14:30;;;;;;;48.42;34.70;;;23.10;99.90;;;;;;4858051;29;20681;-72
2023/08/25 12:16:57;;;;;;;48.08;34.05;;;23.20;99.90;;;;;;4858005;29;20186;-74
2023/08/25 12:19:26;;;;;;;46.00;33.53;;;23.30;99.90;;;;;;4843824;29;20234;-74
2023/08/25 12:21:54;;;;;;;46.03;31.98;;;23.30;99.90;;;;;;4861158;29;20186;-72
2023/08/25 12:24:20;;;;;;;42.25;31.20;;;23.40;99.90;;;;;;4857269;29;20245;-73
2023/08/25 12:26:47;;;;;;;48.20;32.38;;;23.40;99.90;;;;;;4853720;29;20204;-71